Time;durP1;ratioP1;P1;durP2;ratioP2;P2;SDS_P1;SDS_P2;PMS_P1;PMS_P2;Temp;Humidity;BMP_temperature;BMP_pressure;BME280_temperature;BME280_humidity;BME280_pressure;Samples;Min_cycle;Max_cycle;Signal;HPM_P1;HPM_P2
2024/02/01 00:00:09;;;;;;;1.92;1.67;;;;;;;3.23;100.00;97156.69;1022991;28;20039;-68
2024/02/01 00:00:40;;;;;;;1.00;1.00;;;;;;;3.30;100.00;97173.91;1025749;28;20019;-68
2024/02/01 00:01:10;;;;;;;3.15;1.40;;;;;;;3.26;100.00;97171.88;1020119;28;20031;-67
2024/02/01 00:01:41;;;;;;;1.20;1.20;;;;;;;3.28;100.00;97173.28;1024425;28;20023;-67
2024/02/01 00:02:11;;;;;;;1.45;1.13;;;;;;;3.24;100.00;97174.63;1022974;28;20519;-68
2024/02/01 00:02:42;;;;;;;2.05;1.92;;;;;;;3.26;100.00;97174.47;1030750;28;20057;-68
2024/02/01 00:03:12;;;;;;;3.22;0.98;;;;;;;3.28;100.00;97169.88;1030033;28;20022;-68
2024/02/01 00:03:43;;;;;;;1.10;0.90;;;;;;;3.24;100.00;97166.06;1023053;28;20395;-69
2024/02/01 00:04:13;;;;;;;1.67;1.58;;;;;;;3.26;100.00;97169.28;1022936;28;20022;-68
2024/02/01 00:04:43;;;;;;;1.15;0.85;;;;;;;3.12;100.00;97147.56;1018873;29;20479;-68
2024/02/01 00:05:14;;;;;;;1.95;1.77;;;;;;;3.20;100.00;97167.41;1024238;28;20138;-68
2024/02/01 00:05:44;;;;;;;0.65;0.65;;;;;;;3.07;100.00;97158.47;1026781;28;20126;-69
2024/02/01 00:06:15;;;;;;;2.35;1.75;;;;;;;3.14;100.00;97165.53;1022973;28;20023;-68
2024/02/01 00:06:50;;;;;;;4.07;2.90;;;;;;;3.11;100.00;97161.50;1035087;28;20030;-69
2024/02/01 00:07:20;;;;;;;2.58;0.90;;;;;;;3.06;100.00;97161.25;1031162;28;20089;-69
2024/02/01 00:07:51;;;;;;;1.98;1.50;;;;;;;3.11;100.00;97165.88;1023859;28;20388;-68
2024/02/01 00:08:22;;;;;;;0.63;0.63;;;;;;;3.10;100.00;97170.28;1023739;28;20035;-68
2024/02/01 00:08:52;;;;;;;5.03;2.05;;;;;;;3.08;100.00;97164.44;1026366;28;20477;-69
2024/02/01 00:09:22;;;;;;;1.58;1.48;;;;;;;3.05;100.00;97168.22;1027246;28;20019;-68
2024/02/01 00:09:53;;;;;;;0.77;0.50;;;;;;;3.03;100.00;97167.59;1026943;28;20022;-68
2024/02/01 00:10:23;;;;;;;2.53;0.73;;;;;;;2.96;100.00;97160.72;1030669;28;20493;-68
2024/02/01 00:10:54;;;;;;;1.83;1.67;;;;;;;2.97;100.00;97167.50;1023219;28;20023;-66
2024/02/01 00:11:24;;;;;;;4.10;1.13;;;;;;;2.91;100.00;97152.66;1022961;28;20024;-68
2024/02/01 00:11:55;;;;;;;0.47;0.15;;;;;;;2.97;100.00;97170.09;1023071;29;20356;-70
2024/02/01 00:12:25;;;;;;;0.38;0.38;;;;;;;2.97;100.00;97170.09;1023217;28;20016;-69
2024/02/01 00:12:56;;;;;;;2.05;1.00;;;;;;;2.95;100.00;97169.44;1030850;28;20085;-67
2024/02/01 00:13:26;;;;;;;1.20;1.10;;;;;;;2.94;100.00;97168.66;1031210;28;20094;-68
2024/02/01 00:13:57;;;;;;;3.13;1.52;;;;;;;2.95;100.00;97159.91;1022751;29;20046;-69
2024/02/01 00:14:27;;;;;;;2.17;1.98;;;;;;;2.96;100.00;97166.69;1024550;28;20023;-68
2024/02/01 00:14:58;;;;;;;0.73;0.73;;;;;;;2.95;100.00;97165.09;1027601;28;20011;-68
2024/02/01 00:15:29;;;;;;;1.00;1.00;;;;;;;2.88;100.00;97153.81;1027059;28;20469;-67
2024/02/01 00:15:59;;;;;;;2.35;1.70;;;;;;;2.92;100.00;97162.88;1027113;28;20640;-68
2024/02/01 00:16:30;;;;;;;2.63;2.25;;;;;;;2.93;100.00;97167.06;1030999;28;20053;-68
2024/02/01 00:17:00;;;;;;;0.63;0.63;;;;;;;2.91;100.00;97166.41;1031135;28;20015;-68
2024/02/01 00:17:31;;;;;;;3.15;2.05;;;;;;;2.89;100.00;97168.41;1027253;28;20034;-70
2024/02/01 00:18:01;;;;;;;1.40;1.20;;;;;;;2.90;100.00;97167.41;1027438;28;20027;-68
2024/02/01 00:18:32;;;;;;;1.15;1.08;;;;;;;2.91;100.00;97169.00;1029834;28;20462;-68
2024/02/01 00:19:02;;;;;;;2.83;1.40;;;;;;;2.88;100.00;97176.34;1026939;28;20034;-68
2024/02/01 00:19:32;;;;;;;1.27;1.27;;;;;;;2.87;100.00;97172.94;1032869;28;20037;-68
2024/02/01 00:20:03;;;;;;;1.73;1.63;;;;;;;2.88;100.00;97171.16;1027267;28;20402;-70
2024/02/01 00:20:35;;;;;;;2.03;0.95;;;;;;;2.91;100.00;97181.97;1026498;28;20019;-68
2024/02/01 00:21:06;;;;;;;2.80;2.35;;;;;;;2.91;100.00;97174.19;1027148;28;20105;-67
2024/02/01 00:21:36;;;;;;;1.38;1.27;;;;;;;2.96;100.00;97178.84;1027555;28;20906;-67
2024/02/01 00:22:06;;;;;;;0.63;0.63;;;;;;;2.97;100.00;97176.06;1022313;29;20020;-67
2024/02/01 00:22:37;;;;;;;1.58;1.15;;;;;;;2.98;100.00;97175.09;1019050;29;20058;-69
2024/02/01 00:23:07;;;;;;;2.28;1.52;;;;;;;2.97;100.00;97178.66;1022014;28;20019;-69
2024/02/01 00:23:38;;;;;;;1.70;1.20;;;;;;;2.99;100.00;97176.72;1022932;28;20073;-67
2024/02/01 00:24:09;;;;;;;1.08;0.98;;;;;;;2.99;100.00;97176.72;1026852;28;20274;-67
2024/02/01 00:24:40;;;;;;;2.65;1.77;;;;;;;3.01;100.00;97176.53;1022822;28;20020;-68
2024/02/01 00:25:10;;;;;;;0.45;0.45;;;;;;;3.01;100.00;97174.72;1019110;29;20801;-67
2024/02/01 00:25:41;;;;;;;1.58;1.45;;;;;;;2.98;100.00;97171.69;1023539;28;20311;-67
2024/02/01 00:26:12;;;;;;;1.55;1.45;;;;;;;3.01;100.00;97168.75;1019982;28;20024;-68
2024/02/01 00:26:42;;;;;;;1.65;1.55;;;;;;;2.99;100.00;97171.53;1031162;28;20031;-67
2024/02/01 00:27:12;;;;;;;2.47;1.50;;;;;;;3.02;100.00;97170.38;1019043;29;20015;-67
2024/02/01 00:27:43;;;;;;;1.30;1.05;;;;;;;3.01;100.00;97169.53;1015074;29;20028;-69
2024/02/01 00:28:13;;;;;;;1.00;1.00;;;;;;;3.05;100.00;97175.19;1014181;29;20032;-69
2024/02/01 00:28:44;;;;;;;2.58;2.40;;;;;;;3.06;100.00;97172.41;1019166;28;20451;-68
2024/02/01 00:29:14;;;;;;;0.80;0.77;;;;;;;3.02;100.00;97160.81;1026354;28;20170;-68
2024/02/01 00:29:45;;;;;;;2.67;2.15;;;;;;;3.03;100.00;97166.78;1021057;29;20075;-72
2024/02/01 00:30:17;;;;;;;2.97;1.52;;;;;;;3.07;100.00;97168.84;1019993;28;20032;-69
2024/02/01 00:30:48;;;;;;;2.13;1.60;;;;;;;3.13;100.00;97176.91;1026922;28;20038;-69
2024/02/01 00:31:18;;;;;;;2.75;1.77;;;;;;;3.13;100.00;97166.53;1030074;28;20262;-67
2024/02/01 00:31:49;;;;;;;3.63;1.75;;;;;;;3.15;100.00;97170.53;1023092;29;20498;-68
2024/02/01 00:32:19;;;;;;;1.65;1.00;;;;;;;3.18;100.00;97164.19;1023636;28;20479;-71
2024/02/01 00:32:50;;;;;;;0.75;0.75;;;;;;;3.25;100.00;97170.25;1022991;28;20027;-67
2024/02/01 00:33:20;;;;;;;1.15;1.02;;;;;;;3.27;100.00;97169.09;1021445;28;20066;-67
2024/02/01 00:33:51;;;;;;;5.30;1.10;;;;;;;3.28;100.00;97169.88;1029759;28;20030;-67
2024/02/01 00:34:21;;;;;;;2.58;1.95;;;;;;;3.36;100.00;97172.41;1025617;28;20593;-71
2024/02/01 00:34:52;;;;;;;1.52;1.42;;;;;;;3.37;100.00;97163.63;1020831;28;20059;-69
2024/02/01 00:35:22;;;;;;;2.10;1.85;;;;;;;3.42;100.00;97168.25;1027317;28;20042;-68
2024/02/01 00:35:53;;;;;;;1.13;0.73;;;;;;;3.42;100.00;97161.31;1022778;28;20027;-67
2024/02/01 00:36:23;;;;;;;0.93;0.80;;;;;;;3.40;100.00;97165.84;1026960;28;20122;-70
2024/02/01 00:36:54;;;;;;;0.90;0.90;;;;;;;3.42;100.00;97163.06;1030847;28;20037;-69
2024/02/01 00:37:24;;;;;;;0.52;0.52;;;;;;;3.47;100.00;97171.13;1027867;28;20831;-66
2024/02/01 00:37:54;;;;;;;0.68;0.57;;;;;;;3.43;100.00;97155.13;1030705;28;20022;-66
2024/02/01 00:38:25;;;;;;;1.13;0.95;;;;;;;3.49;100.00;97162.19;1022740;29;20026;-69
2024/02/01 00:38:55;;;;;;;0.88;0.88;;;;;;;3.47;100.00;97164.13;1021322;28;20031;-69
2024/02/01 00:39:26;;;;;;;0.95;0.90;;;;;;;3.42;100.00;97144.91;1026832;28;20038;-68
2024/02/01 00:39:56;;;;;;;4.55;2.15;;;;;;;3.49;100.00;97161.38;1017065;29;20032;-67
2024/02/01 00:40:27;;;;;;;6.47;1.05;;;;;;;3.43;100.00;97147.34;1021839;28;20032;-67
2024/02/01 00:40:57;;;;;;;1.92;1.73;;;;;;;3.49;100.00;97154.41;1023265;28;20035;-67
2024/02/01 00:41:28;;;;;;;1.65;1.42;;;;;;;3.52;100.00;97155.78;1018372;29;20032;-67
2024/02/01 00:41:58;;;;;;;0.40;0.40;;;;;;;3.51;100.00;97155.00;1019246;29;20027;-66
2024/02/01 00:42:29;;;;;;;1.27;1.23;;;;;;;3.53;100.00;97152.25;1016823;29;20025;-68
2024/02/01 00:42:59;;;;;;;4.70;1.00;;;;;;;3.54;100.00;97154.63;1022895;28;20035;-67
2024/02/01 00:43:29;;;;;;;1.67;1.55;;;;;;;3.56;100.00;97145.88;1027016;28;20525;-70
2024/02/01 00:44:00;;;;;;;1.48;1.30;;;;;;;3.58;100.00;97151.69;1027183;28;20023;-69
2024/02/01 00:44:31;;;;;;;1.38;1.08;;;;;;;3.52;100.00;97146.25;1034725;28;20022;-68
2024/02/01 00:45:01;;;;;;;6.00;1.10;;;;;;;3.59;100.00;97156.69;1027180;28;20023;-68
2024/02/01 00:45:32;;;;;;;2.25;1.02;;;;;;;3.59;100.00;97159.28;1026892;28;20030;-68
2024/02/01 00:46:02;;;;;;;1.75;1.48;;;;;;;3.53;100.00;97141.84;1023106;29;20097;-67
2024/02/01 00:46:33;;;;;;;0.82;0.82;;;;;;;3.59;100.00;97145.50;1022240;29;20062;-68
2024/02/01 00:47:04;;;;;;;1.83;1.10;;;;;;;3.63;100.00;97151.94;1019139;29;20532;-67
2024/02/01 00:47:34;;;;;;;1.67;1.30;;;;;;;3.65;100.00;97152.56;1026887;28;20033;-66
2024/02/01 00:48:05;;;;;;;1.02;0.93;;;;;;;3.64;100.00;97149.16;1022397;29;20728;-71
2024/02/01 00:48:35;;;;;;;1.55;1.45;;;;;;;3.69;100.00;97156.38;1019300;29;20037;-68
2024/02/01 00:49:06;;;;;;;2.25;1.02;;;;;;;3.70;100.00;97153.63;1018898;28;20024;-68
2024/02/01 00:49:36;;;;;;;1.50;0.93;;;;;;;3.69;100.00;97151.19;1022986;28;20419;-68
2024/02/01 00:50:07;;;;;;;1.42;0.80;;;;;;;3.68;100.00;97154.78;1023126;28;20032;-68
2024/02/01 00:50:37;;;;;;;3.45;3.20;;;;;;;3.67;100.00;97153.19;1027002;28;20027;-67
2024/02/01 00:51:08;;;;;;;1.05;1.02;;;;;;;3.67;100.00;97153.19;1022544;28;20023;-70
2024/02/01 00:51:38;;;;;;;2.55;1.95;;;;;;;3.70;100.00;97153.63;1018128;29;20089;-68
2024/02/01 00:52:09;;;;;;;1.80;1.35;;;;;;;3.65;100.00;97147.34;1018038;29;20035;-67
2024/02/01 00:52:39;;;;;;;1.00;0.73;;;;;;;3.58;100.00;97128.31;1019530;29;20032;-67
2024/02/01 00:53:10;;;;;;;2.72;2.00;;;;;;;3.70;100.00;97158.00;1021687;28;20030;-69
2024/02/01 00:53:41;;;;;;;1.63;0.98;;;;;;;3.71;100.00;97152.63;1023712;28;20030;-68
2024/02/01 00:54:11;;;;;;;6.40;3.08;;;;;;;3.73;100.00;97155.06;1018546;29;20106;-68
2024/02/01 00:54:42;;;;;;;0.98;0.98;;;;;;;3.73;100.00;97152.44;1015643;29;20848;-69
2024/02/01 00:55:12;;;;;;;1.65;1.55;;;;;;;3.65;100.00;97139.56;1020758;29;20105;-68
2024/02/01 00:55:43;;;;;;;1.45;1.35;;;;;;;3.71;100.00;97151.81;1023988;28;20035;-68
2024/02/01 00:56:13;;;;;;;2.13;1.92;;;;;;;3.74;100.00;97154.06;1026270;28;20407;-68
2024/02/01 00:56:44;;;;;;;0.80;0.75;;;;;;;3.71;100.00;97149.22;1027780;28;20030;-69
2024/02/01 00:57:14;;;;;;;1.98;1.77;;;;;;;3.72;100.00;97153.41;1027863;28;20035;-69
2024/02/01 00:57:45;;;;;;;3.25;1.48;;;;;;;3.72;100.00;97150.81;1023360;29;20031;-71
2024/02/01 00:58:15;;;;;;;5.18;1.17;;;;;;;3.70;100.00;97153.63;1023765;29;20015;-67
2024/02/01 00:58:45;;;;;;;2.97;1.25;;;;;;;3.74;100.00;97151.47;1019656;29;20027;-68
2024/02/01 00:59:16;;;;;;;2.17;1.95;;;;;;;3.73;100.00;97153.25;1021242;29;20023;-71
2024/02/01 00:59:46;;;;;;;2.40;1.23;;;;;;;3.72;100.00;97148.22;1020302;29;20024;-68
2024/02/01 01:00:17;;;;;;;3.50;0.68;;;;;;;3.72;100.00;97146.47;1019763;28;20063;-68
2024/02/01 01:00:48;;;;;;;1.98;1.55;;;;;;;3.64;100.00;97143.16;1031424;28;20030;-69
2024/02/01 01:01:18;;;;;;;0.90;0.88;;;;;;;3.70;100.00;97152.81;1029865;28;20023;-69
2024/02/01 01:01:48;;;;;;;0.88;0.85;;;;;;;3.70;100.00;97156.22;1023237;28;20551;-68
2024/02/01 01:02:19;;;;;;;0.43;0.43;;;;;;;3.73;100.00;97148.06;1022193;29;20054;-70
2024/02/01 01:02:49;;;;;;;0.77;0.77;;;;;;;3.74;100.00;97151.47;1023487;29;20020;-68
2024/02/01 01:03:20;;;;;;;2.72;1.65;;;;;;;3.75;100.00;97148.66;1015723;29;20376;-69
2024/02/01 01:03:50;;;;;;;0.82;0.82;;;;;;;3.77;100.00;97146.69;1023993;28;20066;-68
2024/02/01 01:04:21;;;;;;;2.03;1.23;;;;;;;3.76;100.00;97146.91;1023733;28;20023;-68
2024/02/01 01:04:51;;;;;;;0.77;0.60;;;;;;;3.71;100.00;97144.84;1027242;28;20018;-68
2024/02/01 01:05:22;;;;;;;0.85;0.82;;;;;;;3.72;100.00;97141.28;1028099;28;20030;-68
2024/02/01 01:05:52;;;;;;;1.35;0.73;;;;;;;3.74;100.00;97143.66;1027265;28;20023;-69
2024/02/01 01:06:22;;;;;;;1.52;1.15;;;;;;;3.74;100.00;97143.66;1023519;29;20102;-68
2024/02/01 01:06:53;;;;;;;2.45;1.85;;;;;;;3.72;100.00;97141.28;1025726;28;20052;-69
2024/02/01 01:07:23;;;;;;;0.57;0.57;;;;;;;3.71;100.00;97142.25;1027525;28;20034;-66
2024/02/01 01:07:54;;;;;;;1.55;1.05;;;;;;;3.71;100.00;97137.03;1027533;28;20487;-69
2024/02/01 01:08:24;;;;;;;1.95;1.65;;;;;;;3.72;100.00;97140.44;1031598;28;20061;-68
2024/02/01 01:08:55;;;;;;;13.13;1.67;;;;;;;3.74;100.00;97143.66;1030955;28;20038;-68
2024/02/01 01:09:25;;;;;;;0.98;0.88;;;;;;;3.74;100.00;97143.66;1023791;28;20027;-69
2024/02/01 01:09:56;;;;;;;1.63;1.52;;;;;;;3.68;100.00;97134.00;1023585;28;20055;-70
2024/02/01 01:10:26;;;;;;;1.90;1.17;;;;;;;3.76;100.00;97149.50;1023314;29;20028;-68
2024/02/01 01:10:57;;;;;;;2.08;1.55;;;;;;;3.76;100.00;97149.50;1023915;28;20031;-67
2024/02/01 01:11:27;;;;;;;3.22;1.27;;;;;;;3.74;100.00;97148.84;1027719;28;20031;-68
2024/02/01 01:11:58;;;;;;;4.55;1.33;;;;;;;3.72;100.00;97156.00;1031940;28;20026;-68
2024/02/01 01:12:30;;;;;;;0.70;0.65;;;;;;;3.69;100.00;97146.00;1031672;28;20104;-70
2024/02/01 01:13:00;;;;;;;0.30;0.30;;;;;;;3.66;100.00;97152.38;1027538;28;20034;-68
2024/02/01 01:13:31;;;;;;;2.58;2.38;;;;;;;3.70;100.00;97153.63;1023540;29;20327;-67
2024/02/01 01:14:01;;;;;;;2.05;1.58;;;;;;;3.71;100.00;97154.41;1020765;28;20035;-67
2024/02/01 01:14:32;;;;;;;4.47;2.42;;;;;;;3.70;100.00;97150.22;1027859;28;20493;-69
2024/02/01 01:15:03;;;;;;;1.13;1.02;;;;;;;3.73;100.00;97155.06;1028032;28;20030;-68
2024/02/01 01:15:33;;;;;;;6.03;1.35;;;;;;;3.73;100.00;97153.25;1031523;28;20057;-68
2024/02/01 01:16:04;;;;;;;1.83;1.10;;;;;;;3.75;100.00;97161.63;1031808;28;20026;-68
2024/02/01 01:16:35;;;;;;;0.70;0.70;;;;;;;3.75;100.00;97153.84;1031287;28;20928;-68
2024/02/01 01:17:05;;;;;;;0.88;0.88;;;;;;;3.75;100.00;97156.44;1027165;28;20023;-68
2024/02/01 01:17:35;;;;;;;0.50;0.50;;;;;;;3.75;100.00;97150.47;1019850;28;20065;-68
2024/02/01 01:18:07;;;;;;;4.13;2.03;;;;;;;3.72;100.00;97156.84;1023470;28;20039;-69
2024/02/01 01:18:38;;;;;;;1.25;1.25;;;;;;;3.73;100.00;97160.25;1026757;28;20033;-67
2024/02/01 01:19:08;;;;;;;5.85;3.20;;;;;;;3.76;100.00;97160.69;1026592;28;20261;-70
2024/02/01 01:19:39;;;;;;;0.40;0.40;;;;;;;3.63;100.00;97139.78;1027836;28;20095;-68
2024/02/01 01:20:10;;;;;;;0.50;0.50;;;;;;;3.67;100.00;97151.38;1031592;28;20049;-68
2024/02/01 01:20:40;;;;;;;2.70;1.38;;;;;;;3.68;100.00;97158.19;1019576;29;20023;-70
2024/02/01 01:21:12;;;;;;;0.65;0.65;;;;;;;3.70;100.00;97158.00;1019358;29;20055;-68
2024/02/01 01:21:42;;;;;;;2.42;2.22;;;;;;;3.64;100.00;97148.34;1019953;29;20067;-69
2024/02/01 01:22:12;;;;;;;1.13;1.13;;;;;;;3.68;100.00;97159.97;1019607;29;20626;-68
2024/02/01 01:22:43;;;;;;;1.13;1.05;;;;;;;3.69;100.00;97167.59;1019568;29;20066;-68
2024/02/01 01:23:13;;;;;;;4.13;1.60;;;;;;;3.70;100.00;97158.81;1019999;29;20070;-69
2024/02/01 01:23:44;;;;;;;1.98;1.17;;;;;;;3.70;100.00;97160.59;1023655;29;20035;-68
2024/02/01 01:24:14;;;;;;;2.45;2.25;;;;;;;3.72;100.00;97156.00;1027735;28;20039;-69
2024/02/01 01:24:45;;;;;;;3.53;2.28;;;;;;;3.70;100.00;97158.00;1031524;28;20034;-71
2024/02/01 01:25:16;;;;;;;1.63;1.58;;;;;;;3.69;100.00;97158.97;1023686;28;20031;-67
2024/02/01 01:25:46;;;;;;;0.55;0.50;;;;;;;3.69;100.00;97157.22;1027742;28;20598;-70
2024/02/01 01:26:23;;;;;;;0.80;0.50;;;;;;;3.70;100.00;97152.81;1031556;28;20304;-68
2024/02/01 01:26:54;;;;;;;1.88;1.50;;;;;;;3.59;100.00;97140.31;1025322;28;20042;-67
2024/02/01 01:27:24;;;;;;;0.88;0.88;;;;;;;3.69;100.00;97146.81;1023398;29;21273;-69
2024/02/01 01:27:55;;;;;;;1.05;1.05;;;;;;;3.71;100.00;97154.41;1015350;29;20111;-68
2024/02/01 01:28:25;;;;;;;0.82;0.82;;;;;;;3.71;100.00;97149.22;1016063;29;20519;-68
2024/02/01 01:28:55;;;;;;;1.08;0.93;;;;;;;3.74;100.00;97148.84;1018814;29;20032;-68
2024/02/01 01:29:26;;;;;;;2.08;1.95;;;;;;;3.70;100.00;97147.63;1019502;28;20040;-68
2024/02/01 01:29:56;;;;;;;6.03;0.85;;;;;;;3.73;100.00;97147.25;1019817;29;20027;-69
2024/02/01 01:30:27;;;;;;;0.60;0.60;;;;;;;3.72;100.00;97156.00;1020935;28;20023;-68
2024/02/01 01:30:57;;;;;;;2.17;1.05;;;;;;;3.76;100.00;97157.28;1025062;28;20035;-74
2024/02/01 01:31:28;;;;;;;2.05;1.80;;;;;;;3.69;100.00;97141.63;1027813;28;20028;-70
2024/02/01 01:31:58;;;;;;;1.38;1.00;;;;;;;3.75;100.00;97156.44;1030898;28;20027;-69
2024/02/01 01:32:29;;;;;;;1.75;1.13;;;;;;;3.78;100.00;97160.47;1024561;29;20035;-71
2024/02/01 01:32:59;;;;;;;0.63;0.52;;;;;;;3.69;100.00;97135.63;1023571;29;20475;-70
2024/02/01 01:33:30;;;;;;;1.40;1.30;;;;;;;3.83;100.00;97152.94;1027241;29;20062;-71
2024/02/01 01:34:00;;;;;;;0.50;0.50;;;;;;;3.71;100.00;97131.84;1023770;29;20042;-71
2024/02/01 01:34:30;;;;;;;1.92;1.83;;;;;;;3.81;100.00;97154.91;1027550;28;20035;-72
2024/02/01 01:35:02;;;;;;;1.83;1.33;;;;;;;3.85;100.00;97160.53;1027187;29;20035;-70
2024/02/01 01:35:33;;;;;;;1.35;1.25;;;;;;;3.86;100.00;97162.97;1028091;28;20035;-70
2024/02/01 01:36:03;;;;;;;0.43;0.43;;;;;;;3.84;100.00;97154.56;1026681;28;20270;-69
2024/02/01 01:36:34;;;;;;;5.00;1.70;;;;;;;3.84;100.00;97145.97;1023851;28;20122;-68
2024/02/01 01:37:04;;;;;;;2.60;1.98;;;;;;;3.90;100.00;97159.00;1019573;29;20546;-68
2024/02/01 01:37:36;;;;;;;3.17;1.52;;;;;;;3.85;100.00;97145.75;1023451;28;20098;-68
2024/02/01 01:38:07;;;;;;;1.33;0.98;;;;;;;3.90;100.00;97153.81;1026752;28;20590;-68
2024/02/01 01:38:37;;;;;;;0.63;0.52;;;;;;;3.89;100.00;97152.22;1022881;29;20275;-68
2024/02/01 01:39:09;;;;;;;0.98;0.98;;;;;;;3.88;100.00;97160.97;1024524;28;20499;-68
2024/02/01 01:39:39;;;;;;;0.28;0.28;;;;;;;3.88;100.00;97154.97;1024077;28;20624;-67
2024/02/01 01:40:10;;;;;;;2.28;1.00;;;;;;;3.89;100.00;97152.22;1028947;28;20309;-67
2024/02/01 01:40:40;;;;;;;1.60;1.50;;;;;;;3.85;100.00;97150.97;1027326;28;20403;-68
2024/02/01 01:41:11;;;;;;;2.55;1.60;;;;;;;3.94;100.00;97160.25;1021966;29;20027;-69
2024/02/01 01:41:44;;;;;;;1.55;1.45;;;;;;;3.90;100.00;97156.41;1028545;28;20023;-68
2024/02/01 01:42:15;;;;;;;1.20;1.20;;;;;;;3.93;100.00;97150.84;1026190;28;20037;-68
2024/02/01 01:42:45;;;;;;;3.05;1.63;;;;;;;3.77;100.00;97138.09;1023270;29;20283;-68
2024/02/01 01:43:16;;;;;;;1.38;1.23;;;;;;;3.94;100.00;97160.25;1019926;29;20028;-69
2024/02/01 01:43:46;;;;;;;2.13;1.42;;;;;;;3.96;100.00;97158.28;1015384;29;20040;-68
2024/02/01 01:44:17;;;;;;;8.15;1.88;;;;;;;3.95;100.00;97151.47;1018198;29;20032;-70
2024/02/01 01:44:47;;;;;;;1.25;1.00;;;;;;;3.93;100.00;97147.47;1019354;29;20503;-66
2024/02/01 01:45:18;;;;;;;1.35;0.90;;;;;;;3.96;100.00;97158.28;1019386;28;20043;-67
2024/02/01 01:45:53;;;;;;;4.38;1.88;;;;;;;3.97;100.00;97159.88;1023361;28;20091;-67
2024/02/01 01:46:25;;;;;;;1.10;1.02;;;;;;;3.94;100.00;97157.66;1024109;28;20388;-68
2024/02/01 01:46:55;;;;;;;4.43;2.47;;;;;;;3.88;100.00;97148.00;1024415;28;20271;-69
2024/02/01 01:47:26;;;;;;;1.70;1.40;;;;;;;3.87;100.00;97149.00;1023793;28;20271;-67
2024/02/01 01:47:57;;;;;;;1.83;1.73;;;;;;;3.90;100.00;97146.03;1024817;28;20027;-69
2024/02/01 01:48:27;;;;;;;3.28;1.75;;;;;;;3.94;100.00;97152.44;1018638;29;20496;-68
2024/02/01 01:48:58;;;;;;;1.35;1.15;;;;;;;3.88;100.00;97153.19;1022921;29;20038;-69
2024/02/01 01:49:28;;;;;;;1.33;1.13;;;;;;;3.87;100.00;97151.59;1023125;28;20181;-67
2024/02/01 01:49:59;;;;;;;12.45;1.23;;;;;;;3.89;100.00;97152.22;1019447;29;20024;-68
2024/02/01 01:50:29;;;;;;;1.83;1.45;;;;;;;3.88;100.00;97154.97;1019524;29;20028;-68
2024/02/01 01:51:00;;;;;;;1.50;1.42;;;;;;;3.88;100.00;97155.78;1015479;29;20028;-69
2024/02/01 01:51:31;;;;;;;3.70;1.83;;;;;;;3.89;100.00;97154.81;1023410;28;20066;-67
2024/02/01 01:52:01;;;;;;;4.65;1.98;;;;;;;3.73;100.00;97131.69;1027380;28;20030;-69
2024/02/01 01:52:33;;;;;;;1.85;1.70;;;;;;;3.88;100.00;97150.59;1024081;28;20262;-67
2024/02/01 01:53:03;;;;;;;1.35;1.08;;;;;;;3.87;100.00;97151.59;1023214;29;20027;-68
2024/02/01 01:53:34;;;;;;;2.38;1.25;;;;;;;3.85;100.00;97150.97;1027420;28;20915;-68
2024/02/01 01:54:05;;;;;;;0.95;0.77;;;;;;;3.89;100.00;97152.22;1027080;28;20022;-69
2024/02/01 01:54:36;;;;;;;2.80;1.67;;;;;;;3.89;100.00;97152.22;1026186;28;20057;-69
2024/02/01 01:55:06;;;;;;;1.33;1.23;;;;;;;3.86;100.00;97144.00;1022260;28;20038;-68
2024/02/01 01:55:37;;;;;;;1.27;1.15;;;;;;;3.87;100.00;97137.81;1027692;28;20561;-68
2024/02/01 01:56:07;;;;;;;1.08;1.08;;;;;;;3.82;100.00;97130.56;1019372;29;20503;-68
2024/02/01 01:56:39;;;;;;;3.20;2.53;;;;;;;3.91;100.00;97139.84;1020872;29;20074;-69
2024/02/01 01:57:09;;;;;;;1.70;1.60;;;;;;;3.93;100.00;97143.06;1023152;29;20031;-68
2024/02/01 01:57:40;;;;;;;4.90;2.58;;;;;;;4.00;100.00;97153.53;1019682;29;20267;-68
2024/02/01 01:58:10;;;;;;;0.65;0.47;;;;;;;3.97;100.00;97144.28;1015440;29;20028;-68
2024/02/01 01:58:41;;;;;;;1.02;1.02;;;;;;;3.98;100.00;97148.50;1022558;29;20031;-68
2024/02/01 01:59:12;;;;;;;3.50;1.90;;;;;;;4.00;100.00;97149.13;1018664;29;20023;-68
2024/02/01 01:59:42;;;;;;;3.25;2.28;;;;;;;4.03;100.00;97147.16;1019623;29;20423;-68
2024/02/01 02:00:13;;;;;;;1.35;1.05;;;;;;;3.99;100.00;97144.94;1019239;29;20251;-68
2024/02/01 02:00:43;;;;;;;3.60;2.03;;;;;;;3.95;100.00;97146.25;1019541;29;20547;-68
2024/02/01 02:01:14;;;;;;;1.77;1.65;;;;;;;3.96;100.00;97147.88;1016970;29;20083;-68
2024/02/01 02:01:45;;;;;;;2.72;2.22;;;;;;;3.88;100.00;97140.22;1019121;29;20038;-68
2024/02/01 02:02:15;;;;;;;1.92;1.50;;;;;;;3.91;100.00;97142.44;1019133;29;20024;-68
2024/02/01 02:02:46;;;;;;;1.73;1.27;;;;;;;3.90;100.00;97137.44;1023299;29;20685;-68
2024/02/01 02:03:16;;;;;;;1.92;1.45;;;;;;;3.90;100.00;97138.25;1024578;28;20053;-68
2024/02/01 02:03:47;;;;;;;1.50;1.38;;;;;;;3.98;100.00;97151.09;1020736;29;20042;-68
2024/02/01 02:04:17;;;;;;;1.58;1.35;;;;;;;3.96;100.00;97144.50;1014743;29;20028;-69
2024/02/01 02:04:53;;;;;;;6.03;1.20;;;;;;;3.95;100.00;97148.06;1015477;29;20037;-68
2024/02/01 02:05:24;;;;;;;1.95;1.40;;;;;;;3.94;100.00;97143.88;1019199;29;20036;-68
2024/02/01 02:05:55;;;;;;;1.80;0.70;;;;;;;3.94;100.00;97144.66;1021664;28;20279;-68
2024/02/01 02:06:25;;;;;;;1.35;1.20;;;;;;;3.89;100.00;97136.63;1031279;28;20830;-70
2024/02/01 02:06:55;;;;;;;1.20;0.60;;;;;;;3.94;100.00;97144.66;1026374;28;20074;-71
2024/02/01 02:07:26;;;;;;;1.52;1.38;;;;;;;3.92;100.00;97146.66;1018996;29;20028;-68
2024/02/01 02:07:57;;;;;;;1.15;1.05;;;;;;;3.92;100.00;97140.63;1019239;29;20051;-68
2024/02/01 02:08:27;;;;;;;1.02;1.02;;;;;;;3.97;100.00;97143.50;1018418;29;20031;-69
2024/02/01 02:08:58;;;;;;;1.23;1.13;;;;;;;3.96;100.00;97142.69;1018891;28;20032;-68
2024/02/01 02:09:28;;;;;;;3.53;1.65;;;;;;;3.97;100.00;97140.91;1016253;29;20531;-68
2024/02/01 02:10:03;;;;;;;8.68;3.67;;;;;;;3.91;100.00;97142.44;1012189;29;20604;-68
2024/02/01 02:10:33;;;;;;;1.15;1.05;;;;;;;3.95;100.00;97145.47;1019812;29;20034;-68
2024/02/01 02:11:04;;;;;;;3.40;2.00;;;;;;;3.97;100.00;97149.50;1020197;28;20279;-67
2024/02/01 02:11:34;;;;;;;4.75;1.27;;;;;;;3.98;100.00;97145.91;1027992;28;20050;-68
2024/02/01 02:12:05;;;;;;;2.75;1.30;;;;;;;4.00;100.00;97149.13;1033785;28;20480;-68
2024/02/01 02:12:36;;;;;;;3.03;1.45;;;;;;;4.00;100.00;97161.31;1031475;28;20047;-68
2024/02/01 02:13:06;;;;;;;1.45;1.35;;;;;;;4.03;100.00;97152.34;1031212;28;20026;-68
2024/02/01 02:13:36;;;;;;;1.55;1.15;;;;;;;3.99;100.00;97151.88;1022125;29;20032;-67
2024/02/01 02:14:13;;;;;;;1.45;0.80;;;;;;;4.05;100.00;97158.94;1026900;28;20026;-67
2024/02/01 02:15:00;;;;;;;3.22;2.55;;;;;;;4.06;100.00;97162.34;1024339;28;20082;-67
2024/02/01 02:15:32;;;;;;;1.85;1.75;;;;;;;4.06;100.00;97157.97;1030015;28;20871;-69
2024/02/01 02:16:03;;;;;;;0.65;0.40;;;;;;;4.03;100.00;97153.16;1027030;28;20750;-67
2024/02/01 02:16:37;;;;;;;0.30;0.30;;;;;;;4.06;100.00;97162.34;1029597;28;20265;-70
2024/02/01 02:17:07;;;;;;;2.42;0.95;;;;;;;4.06;100.00;97159.75;1027069;28;20038;-69
2024/02/01 02:17:38;;;;;;;2.40;1.38;;;;;;;4.05;100.00;97156.34;1024922;28;20658;-68
2024/02/01 02:18:09;;;;;;;8.93;3.42;;;;;;;4.04;100.00;97159.13;1022985;29;20027;-67
2024/02/01 02:18:40;;;;;;;0.52;0.52;;;;;;;4.05;100.00;97150.34;1018546;29;20825;-69
2024/02/01 02:19:10;;;;;;;6.45;2.30;;;;;;;4.04;100.00;97153.94;1018213;28;20271;-69
2024/02/01 02:19:41;;;;;;;0.93;0.93;;;;;;;4.05;100.00;97158.13;1019694;28;20031;-68
2024/02/01 02:20:17;;;;;;;18.88;2.63;;;;;;;4.01;100.00;97153.31;1015848;29;20377;-68
2024/02/01 02:20:48;;;;;;;1.45;1.17;;;;;;;4.03;100.00;97155.75;1019238;29;20670;-68
2024/02/01 02:21:18;;;;;;;3.42;1.65;;;;;;;4.06;100.00;97151.94;1019353;29;20275;-67
2024/02/01 02:21:49;;;;;;;3.05;1.20;;;;;;;4.05;100.00;97156.34;1019244;29;20024;-68
2024/02/01 02:22:21;;;;;;;1.00;0.95;;;;;;;4.06;100.00;97157.13;1021158;29;20048;-68
2024/02/01 02:22:54;;;;;;;1.13;0.95;;;;;;;4.09;100.00;97155.00;1018780;29;20063;-65
2024/02/01 02:23:25;;;;;;;1.25;1.15;;;;;;;4.12;100.00;97152.00;1015233;29;20276;-67
2024/02/01 02:23:55;;;;;;;1.25;1.20;;;;;;;4.12;100.00;97146.00;1022360;28;20706;-69
2024/02/01 02:24:26;;;;;;;3.25;2.97;;;;;;;4.10;100.00;97153.22;1024147;28;20030;-69
2024/02/01 02:24:56;;;;;;;1.63;1.52;;;;;;;4.12;100.00;97152.00;1016653;29;20060;-68